sensor_id;sensor_type;location;lat;lon;timestamp;P1;durP1;ratioP1;P2;durP2;ratioP2
64887;SDS011;51386;53.082;8.816;2022-07-25T00:01:01;9.63;;;8.07;;
64887;SDS011;51386;53.082;8.816;2022-07-25T00:03:32;8.80;;;7.17;;
64887;SDS011;51386;53.082;8.816;2022-07-25T00:05:59;11.20;;;6.77;;
64887;SDS011;51386;53.082;8.816;2022-07-25T00:08:27;7.40;;;6.80;;
64887;SDS011;51386;53.082;8.816;2022-07-25T00:10:54;7.03;;;6.40;;
64887;SDS011;51386;53.082;8.816;2022-07-25T00:13:22;7.00;;;6.40;;
64887;SDS011;51386;53.082;8.816;2022-07-25T00:15:50;7.37;;;6.10;;
64887;SDS011;51386;53.082;8.816;2022-07-25T00:18:18;7.43;;;6.73;;
64887;SDS011;51386;53.082;8.816;2022-07-25T00:20:45;9.17;;;7.60;;
64887;SDS011;51386;53.082;8.816;2022-07-25T00:23:13;7.03;;;6.33;;
64887;SDS011;51386;53.082;8.816;2022-07-25T00:25:40;7.43;;;6.73;;
64887;SDS011;51386;53.082;8.816;2022-07-25T00:28:07;7.83;;;6.53;;
64887;SDS011;51386;53.082;8.816;2022-07-25T00:30:35;10.27;;;8.40;;
64887;SDS011;51386;53.082;8.816;2022-07-25T00:33:04;6.90;;;6.30;;
64887;SDS011;51386;53.082;8.816;2022-07-25T00:35:31;7.70;;;7.00;;
64887;SDS011;51386;53.082;8.816;2022-07-25T00:37:58;7.77;;;7.07;;
64887;SDS011;51386;53.082;8.816;2022-07-25T00:40:26;7.40;;;6.70;;
64887;SDS011;51386;53.082;8.816;2022-07-25T00:42:53;7.80;;;7.00;;
64887;SDS011;51386;53.082;8.816;2022-07-25T00:45:21;7.00;;;6.13;;
64887;SDS011;51386;53.082;8.816;2022-07-25T00:47:48;11.47;;;6.90;;
64887;SDS011;51386;53.082;8.816;2022-07-25T00:50:17;8.70;;;6.33;;
64887;SDS011;51386;53.082;8.816;2022-07-25T00:52:45;7.23;;;6.63;;
64887;SDS011;51386;53.082;8.816;2022-07-25T00:55:13;7.87;;;5.93;;
64887;SDS011;51386;53.082;8.816;2022-07-25T00:57:41;7.40;;;6.60;;
64887;SDS011;51386;53.082;8.816;2022-07-25T01:00:10;7.37;;;6.47;;
64887;SDS011;51386;53.082;8.816;2022-07-25T01:02:40;7.27;;;6.70;;
64887;SDS011;51386;53.082;8.816;2022-07-25T01:05:09;7.70;;;6.00;;
64887;SDS011;51386;53.082;8.816;2022-07-25T01:07:38;7.03;;;6.33;;
64887;SDS011;51386;53.082;8.816;2022-07-25T01:10:06;6.47;;;5.87;;
64887;SDS011;51386;53.082;8.816;2022-07-25T01:12:48;6.90;;;6.33;;
64887;SDS011;51386;53.082;8.816;2022-07-25T01:15:18;9.07;;;6.90;;
64887;SDS011;51386;53.082;8.816;2022-07-25T01:17:47;10.43;;;6.83;;
64887;SDS011;51386;53.082;8.816;2022-07-25T01:20:16;7.73;;;6.97;;
64887;SDS011;51386;53.082;8.816;2022-07-25T01:22:45;6.53;;;5.93;;
64887;SDS011;51386;53.082;8.816;2022-07-25T01:25:13;7.33;;;6.73;;
64887;SDS011;51386;53.082;8.816;2022-07-25T01:27:42;7.20;;;6.60;;
64887;SDS011;51386;53.082;8.816;2022-07-25T01:30:10;7.77;;;7.07;;
64887;SDS011;51386;53.082;8.816;2022-07-25T01:32:40;7.27;;;6.57;;
64887;SDS011;51386;53.082;8.816;2022-07-25T01:35:09;7.60;;;6.50;;
64887;SDS011;51386;53.082;8.816;2022-07-25T01:37:40;8.83;;;7.30;;
64887;SDS011;51386;53.082;8.816;2022-07-25T01:40:11;11.80;;;6.33;;
64887;SDS011;51386;53.082;8.816;2022-07-25T01:42:39;6.97;;;6.37;;
64887;SDS011;51386;53.082;8.816;2022-07-25T01:45:07;6.93;;;6.33;;
64887;SDS011;51386;53.082;8.816;2022-07-25T01:47:37;6.47;;;5.87;;
64887;SDS011;51386;53.082;8.816;2022-07-25T01:50:05;7.83;;;7.13;;
64887;SDS011;51386;53.082;8.816;2022-07-25T01:52:34;8.00;;;7.27;;
64887;SDS011;51386;53.082;8.816;2022-07-25T01:55:03;9.00;;;7.17;;
64887;SDS011;51386;53.082;8.816;2022-07-25T01:57:32;6.73;;;6.17;;
64887;SDS011;51386;53.082;8.816;2022-07-25T02:00:02;7.67;;;7.07;;
64887;SDS011;51386;53.082;8.816;2022-07-25T02:02:31;6.80;;;6.30;;
64887;SDS011;51386;53.082;8.816;2022-07-25T02:04:58;8.43;;;7.57;;
64887;SDS011;51386;53.082;8.816;2022-07-25T02:07:26;11.00;;;7.80;;
64887;SDS011;51386;53.082;8.816;2022-07-25T02:09:53;7.73;;;7.13;;
64887;SDS011;51386;53.082;8.816;2022-07-25T02:12:23;8.07;;;6.53;;
64887;SDS011;51386;53.082;8.816;2022-07-25T02:14:51;8.20;;;7.43;;
64887;SDS011;51386;53.082;8.816;2022-07-25T02:17:18;8.40;;;7.60;;
64887;SDS011;51386;53.082;8.816;2022-07-25T02:19:46;7.63;;;7.03;;
64887;SDS011;51386;53.082;8.816;2022-07-25T02:22:13;13.60;;;7.43;;
64887;SDS011;51386;53.082;8.816;2022-07-25T02:24:41;7.00;;;6.40;;
64887;SDS011;51386;53.082;8.816;2022-07-25T02:27:09;7.47;;;6.87;;
64887;SDS011;51386;53.082;8.816;2022-07-25T02:29:37;6.77;;;6.23;;
64887;SDS011;51386;53.082;8.816;2022-07-25T02:32:05;8.20;;;7.17;;
64887;SDS011;51386;53.082;8.816;2022-07-25T02:34:32;7.50;;;6.80;;
64887;SDS011;51386;53.082;8.816;2022-07-25T02:37:00;7.73;;;7.10;;
64887;SDS011;51386;53.082;8.816;2022-07-25T02:39:27;6.80;;;6.27;;
64887;SDS011;51386;53.082;8.816;2022-07-25T02:41:54;8.63;;;7.00;;
64887;SDS011;51386;53.082;8.816;2022-07-25T02:44:21;7.93;;;7.23;;
64887;SDS011;51386;53.082;8.816;2022-07-25T02:46:50;7.60;;;6.90;;
64887;SDS011;51386;53.082;8.816;2022-07-25T02:49:18;7.87;;;7.07;;
64887;SDS011;51386;53.082;8.816;2022-07-25T02:51:46;7.03;;;6.43;;
64887;SDS011;51386;53.082;8.816;2022-07-25T02:54:13;6.97;;;6.37;;
64887;SDS011;51386;53.082;8.816;2022-07-25T02:56:41;7.80;;;7.03;;
64887;SDS011;51386;53.082;8.816;2022-07-25T02:59:09;7.80;;;7.03;;
64887;SDS011;51386;53.082;8.816;2022-07-25T03:01:36;11.17;;;7.50;;
64887;SDS011;51386;53.082;8.816;2022-07-25T03:04:05;7.40;;;6.70;;
64887;SDS011;51386;53.082;8.816;2022-07-25T03:06:33;7.90;;;6.97;;
64887;SDS011;51386;53.082;8.816;2022-07-25T03:09:00;9.90;;;8.03;;
64887;SDS011;51386;53.082;8.816;2022-07-25T03:11:28;7.67;;;6.97;;
64887;SDS011;51386;53.082;8.816;2022-07-25T03:13:55;8.27;;;7.33;;
64887;SDS011;51386;53.082;8.816;2022-07-25T03:16:23;8.13;;;7.33;;
64887;SDS011;51386;53.082;8.816;2022-07-25T03:18:50;8.13;;;6.93;;
64887;SDS011;51386;53.082;8.816;2022-07-25T03:21:19;8.43;;;6.93;;
64887;SDS011;51386;53.082;8.816;2022-07-25T03:23:46;7.20;;;6.50;;
64887;SDS011;51386;53.082;8.816;2022-07-25T03:26:18;9.73;;;6.70;;
64887;SDS011;51386;53.082;8.816;2022-07-25T03:28:46;8.83;;;7.93;;
64887;SDS011;51386;53.082;8.816;2022-07-25T03:31:13;8.40;;;6.63;;
64887;SDS011;51386;53.082;8.816;2022-07-25T03:33:40;17.90;;;13.30;;
64887;SDS011;51386;53.082;8.816;2022-07-25T03:36:08;9.40;;;7.63;;
64887;SDS011;51386;53.082;8.816;2022-07-25T03:38:38;6.90;;;6.30;;
64887;SDS011;51386;53.082;8.816;2022-07-25T03:41:05;7.23;;;6.57;;
64887;SDS011;51386;53.082;8.816;2022-07-25T03:43:33;7.97;;;7.13;;
64887;SDS011;51386;53.082;8.816;2022-07-25T03:46:00;8.33;;;6.77;;
64887;SDS011;51386;53.082;8.816;2022-07-25T03:48:27;6.83;;;6.27;;
64887;SDS011;51386;53.082;8.816;2022-07-25T03:50:55;8.10;;;7.40;;
64887;SDS011;51386;53.082;8.816;2022-07-25T03:53:23;7.73;;;7.03;;
64887;SDS011;51386;53.082;8.816;2022-07-25T03:55:51;8.03;;;7.17;;
64887;SDS011;51386;53.082;8.816;2022-07-25T03:58:19;7.27;;;6.57;;
64887;SDS011;51386;53.082;8.816;2022-07-25T04:00:46;7.33;;;6.53;;
64887;SDS011;51386;53.082;8.816;2022-07-25T04:03:14;8.33;;;6.60;;
64887;SDS011;51386;53.082;8.816;2022-07-25T04:05:41;6.63;;;5.93;;
64887;SDS011;51386;53.082;8.816;2022-07-25T04:08:13;7.63;;;6.53;;
64887;SDS011;51386;53.082;8.816;2022-07-25T04:10:40;7.87;;;7.10;;
64887;SDS011;51386;53.082;8.816;2022-07-25T04:13:09;7.40;;;6.73;;
64887;SDS011;51386;53.082;8.816;2022-07-25T04:15:36;6.80;;;6.20;;
64887;SDS011;51386;53.082;8.816;2022-07-25T04:18:04;6.97;;;6.33;;
64887;SDS011;51386;53.082;8.816;2022-07-25T04:20:34;7.20;;;6.40;;
64887;SDS011;51386;53.082;8.816;2022-07-25T04:23:02;9.23;;;6.50;;
64887;SDS011;51386;53.082;8.816;2022-07-25T04:25:30;7.47;;;6.77;;
64887;SDS011;51386;53.082;8.816;2022-07-25T04:27:57;8.20;;;6.80;;
64887;SDS011;51386;53.082;8.816;2022-07-25T04:30:26;7.30;;;6.67;;
64887;SDS011;51386;53.082;8.816;2022-07-25T04:32:53;7.30;;;6.60;;
64887;SDS011;51386;53.082;8.816;2022-07-25T04:35:21;8.60;;;6.50;;
64887;SDS011;51386;53.082;8.816;2022-07-25T04:37:48;7.57;;;6.10;;
64887;SDS011;51386;53.082;8.816;2022-07-25T04:40:16;7.10;;;6.50;;
64887;SDS011;51386;53.082;8.816;2022-07-25T04:42:43;6.43;;;5.80;;
64887;SDS011;51386;53.082;8.816;2022-07-25T04:45:12;7.77;;;6.57;;
64887;SDS011;51386;53.082;8.816;2022-07-25T04:47:44;7.33;;;6.57;;
64887;SDS011;51386;53.082;8.816;2022-07-25T04:50:12;8.37;;;6.70;;
64887;SDS011;51386;53.082;8.816;2022-07-25T04:52:40;6.93;;;5.97;;
64887;SDS011;51386;53.082;8.816;2022-07-25T04:55:08;7.33;;;5.80;;
64887;SDS011;51386;53.082;8.816;2022-07-25T04:57:36;6.87;;;6.27;;
64887;SDS011;51386;53.082;8.816;2022-07-25T05:00:04;5.80;;;5.30;;
64887;SDS011;51386;53.082;8.816;2022-07-25T05:02:34;6.77;;;5.57;;
64887;SDS011;51386;53.082;8.816;2022-07-25T05:05:04;7.33;;;6.10;;
64887;SDS011;51386;53.082;8.816;2022-07-25T05:07:46;8.80;;;5.83;;
64887;SDS011;51386;53.082;8.816;2022-07-25T05:10:14;6.80;;;5.97;;
64887;SDS011;51386;53.082;8.816;2022-07-25T05:12:42;6.97;;;6.27;;
64887;SDS011;51386;53.082;8.816;2022-07-25T05:15:09;9.13;;;6.80;;
64887;SDS011;51386;53.082;8.816;2022-07-25T05:17:37;6.63;;;5.93;;
64887;SDS011;51386;53.082;8.816;2022-07-25T05:20:08;7.03;;;5.70;;
64887;SDS011;51386;53.082;8.816;2022-07-25T05:22:37;6.37;;;5.60;;
64887;SDS011;51386;53.082;8.816;2022-07-25T05:25:06;7.10;;;5.67;;
64887;SDS011;51386;53.082;8.816;2022-07-25T05:27:35;7.20;;;6.13;;
64887;SDS011;51386;53.082;8.816;2022-07-25T05:30:04;6.63;;;6.03;;
64887;SDS011;51386;53.082;8.816;2022-07-25T05:32:35;7.17;;;6.57;;
64887;SDS011;51386;53.082;8.816;2022-07-25T05:35:03;6.90;;;6.30;;
64887;SDS011;51386;53.082;8.816;2022-07-25T05:37:36;6.47;;;5.97;;
64887;SDS011;51386;53.082;8.816;2022-07-25T05:40:04;6.90;;;6.20;;
64887;SDS011;51386;53.082;8.816;2022-07-25T05:42:33;6.63;;;6.03;;
64887;SDS011;51386;53.082;8.816;2022-07-25T05:45:00;6.97;;;6.30;;
64887;SDS011;51386;53.082;8.816;2022-07-25T05:47:28;6.30;;;5.80;;
64887;SDS011;51386;53.082;8.816;2022-07-25T05:49:56;6.90;;;5.83;;
64887;SDS011;51386;53.082;8.816;2022-07-25T05:52:23;6.57;;;5.97;;
64887;SDS011;51386;53.082;8.816;2022-07-25T05:54:52;6.20;;;5.60;;
64887;SDS011;51386;53.082;8.816;2022-07-25T05:57:20;5.97;;;5.37;;
64887;SDS011;51386;53.082;8.816;2022-07-25T05:59:47;6.07;;;5.57;;
64887;SDS011;51386;53.082;8.816;2022-07-25T06:02:15;6.47;;;4.97;;
64887;SDS011;51386;53.082;8.816;2022-07-25T06:04:42;5.60;;;5.10;;
64887;SDS011;51386;53.082;8.816;2022-07-25T06:07:10;6.13;;;5.57;;
64887;SDS011;51386;53.082;8.816;2022-07-25T06:09:42;6.43;;;5.67;;
64887;SDS011;51386;53.082;8.816;2022-07-25T06:12:11;7.47;;;5.17;;
64887;SDS011;51386;53.082;8.816;2022-07-25T06:14:39;5.97;;;5.37;;
64887;SDS011;51386;53.082;8.816;2022-07-25T06:17:08;6.33;;;5.73;;
64887;SDS011;51386;53.082;8.816;2022-07-25T06:19:35;5.60;;;5.10;;
64887;SDS011;51386;53.082;8.816;2022-07-25T06:22:03;5.93;;;5.47;;
64887;SDS011;51386;53.082;8.816;2022-07-25T06:24:30;6.13;;;5.40;;
64887;SDS011;51386;53.082;8.816;2022-07-25T06:26:57;6.43;;;5.93;;
64887;SDS011;51386;53.082;8.816;2022-07-25T06:29:26;7.90;;;5.87;;
64887;SDS011;51386;53.082;8.816;2022-07-25T06:31:53;5.57;;;5.17;;
64887;SDS011;51386;53.082;8.816;2022-07-25T06:34:21;6.33;;;5.73;;
64887;SDS011;51386;53.082;8.816;2022-07-25T06:36:54;5.77;;;5.10;;
64887;SDS011;51386;53.082;8.816;2022-07-25T06:39:23;5.67;;;5.27;;
64887;SDS011;51386;53.082;8.816;2022-07-25T06:41:50;5.93;;;5.30;;
64887;SDS011;51386;53.082;8.816;2022-07-25T06:44:18;5.80;;;5.40;;
64887;SDS011;51386;53.082;8.816;2022-07-25T06:46:47;8.47;;;5.93;;
64887;SDS011;51386;53.082;8.816;2022-07-25T06:49:15;6.17;;;5.47;;
64887;SDS011;51386;53.082;8.816;2022-07-25T06:51:43;5.30;;;4.80;;
64887;SDS011;51386;53.082;8.816;2022-07-25T06:54:10;5.43;;;5.03;;
64887;SDS011;51386;53.082;8.816;2022-07-25T06:56:39;5.37;;;4.83;;
64887;SDS011;51386;53.082;8.816;2022-07-25T06:59:06;6.60;;;5.27;;
64887;SDS011;51386;53.082;8.816;2022-07-25T07:01:34;7.00;;;5.13;;
64887;SDS011;51386;53.082;8.816;2022-07-25T07:04:03;6.33;;;5.83;;
64887;SDS011;51386;53.082;8.816;2022-07-25T07:06:31;6.47;;;5.67;;
64887;SDS011;51386;53.082;8.816;2022-07-25T07:08:59;6.87;;;5.90;;
64887;SDS011;51386;53.082;8.816;2022-07-25T07:11:26;6.00;;;5.50;;
64887;SDS011;51386;53.082;8.816;2022-07-25T07:13:54;8.27;;;5.40;;
64887;SDS011;51386;53.082;8.816;2022-07-25T07:16:21;6.70;;;5.57;;
64887;SDS011;51386;53.082;8.816;2022-07-25T07:18:48;5.70;;;5.20;;
64887;SDS011;51386;53.082;8.816;2022-07-25T07:21:17;5.97;;;5.47;;
64887;SDS011;51386;53.082;8.816;2022-07-25T07:23:47;6.17;;;5.67;;
64887;SDS011;51386;53.082;8.816;2022-07-25T07:26:19;6.10;;;5.60;;
64887;SDS011;51386;53.082;8.816;2022-07-25T07:28:47;8.37;;;5.80;;
64887;SDS011;51386;53.082;8.816;2022-07-25T07:31:14;6.13;;;5.67;;
64887;SDS011;51386;53.082;8.816;2022-07-25T07:33:43;5.87;;;5.47;;
64887;SDS011;51386;53.082;8.816;2022-07-25T07:36:11;6.07;;;5.57;;
64887;SDS011;51386;53.082;8.816;2022-07-25T07:38:40;6.33;;;5.73;;
64887;SDS011;51386;53.082;8.816;2022-07-25T07:41:07;6.10;;;5.33;;
64887;SDS011;51386;53.082;8.816;2022-07-25T07:43:35;6.40;;;5.67;;
64887;SDS011;51386;53.082;8.816;2022-07-25T07:46:02;5.77;;;5.30;;
64887;SDS011;51386;53.082;8.816;2022-07-25T07:48:31;6.63;;;5.27;;
64887;SDS011;51386;53.082;8.816;2022-07-25T07:50:59;6.60;;;6.00;;
64887;SDS011;51386;53.082;8.816;2022-07-25T07:53:28;5.93;;;5.37;;
64887;SDS011;51386;53.082;8.816;2022-07-25T07:56:16;5.47;;;5.07;;
64887;SDS011;51386;53.082;8.816;2022-07-25T07:58:44;6.00;;;5.50;;
64887;SDS011;51386;53.082;8.816;2022-07-25T08:01:12;6.03;;;5.50;;
64887;SDS011;51386;53.082;8.816;2022-07-25T08:03:39;6.13;;;5.57;;
64887;SDS011;51386;53.082;8.816;2022-07-25T08:06:07;6.03;;;5.30;;
64887;SDS011;51386;53.082;8.816;2022-07-25T08:08:34;6.53;;;5.97;;
64887;SDS011;51386;53.082;8.816;2022-07-25T08:11:02;6.30;;;5.70;;
64887;SDS011;51386;53.082;8.816;2022-07-25T08:13:31;7.73;;;5.60;;
64887;SDS011;51386;53.082;8.816;2022-07-25T08:16:00;5.53;;;5.03;;
64887;SDS011;51386;53.082;8.816;2022-07-25T08:18:31;5.70;;;5.20;;
64887;SDS011;51386;53.082;8.816;2022-07-25T08:20:59;5.57;;;5.18;;
64887;SDS011;51386;53.082;8.816;2022-07-25T08:23:29;6.82;;;5.70;;
64887;SDS011;51386;53.082;8.816;2022-07-25T08:25:58;6.10;;;5.60;;
64887;SDS011;51386;53.082;8.816;2022-07-25T08:28:26;6.57;;;5.70;;
64887;SDS011;51386;53.082;8.816;2022-07-25T08:30:56;6.50;;;5.95;;
64887;SDS011;51386;53.082;8.816;2022-07-25T08:33:24;5.75;;;5.35;;
64887;SDS011;51386;53.082;8.816;2022-07-25T08:35:52;7.80;;;5.95;;
64887;SDS011;51386;53.082;8.816;2022-07-25T08:38:21;5.97;;;5.40;;
64887;SDS011;51386;53.082;8.816;2022-07-25T08:40:51;5.97;;;5.57;;
64887;SDS011;51386;53.082;8.816;2022-07-25T08:43:22;6.05;;;5.45;;
64887;SDS011;51386;53.082;8.816;2022-07-25T08:45:50;5.68;;;5.18;;
64887;SDS011;51386;53.082;8.816;2022-07-25T08:48:21;5.65;;;5.25;;
64887;SDS011;51386;53.082;8.816;2022-07-25T08:50:51;5.30;;;4.80;;
64887;SDS011;51386;53.082;8.816;2022-07-25T08:53:24;5.88;;;5.35;;
64887;SDS011;51386;53.082;8.816;2022-07-25T08:56:02;7.10;;;5.90;;
64887;SDS011;51386;53.082;8.816;2022-07-25T08:58:39;5.85;;;5.40;;
64887;SDS011;51386;53.082;8.816;2022-07-25T09:01:09;6.53;;;6.03;;
64887;SDS011;51386;53.082;8.816;2022-07-25T09:03:38;7.10;;;6.60;;
64887;SDS011;51386;53.082;8.816;2022-07-25T09:06:17;7.03;;;6.47;;
64887;SDS011;51386;53.082;8.816;2022-07-25T09:08:50;6.32;;;5.72;;
64887;SDS011;51386;53.082;8.816;2022-07-25T09:11:27;6.35;;;5.75;;
64887;SDS011;51386;53.082;8.816;2022-07-25T09:13:57;6.90;;;6.30;;
64887;SDS011;51386;53.082;8.816;2022-07-25T09:16:31;6.53;;;6.03;;
64887;SDS011;51386;53.082;8.816;2022-07-25T09:19:06;5.97;;;5.47;;
64887;SDS011;51386;53.082;8.816;2022-07-25T09:21:36;6.45;;;5.43;;
64887;SDS011;51386;53.082;8.816;2022-07-25T09:24:09;7.55;;;5.78;;
64887;SDS011;51386;53.082;8.816;2022-07-25T09:26:42;5.95;;;5.30;;
64887;SDS011;51386;53.082;8.816;2022-07-25T09:29:15;6.32;;;5.78;;
64887;SDS011;51386;53.082;8.816;2022-07-25T09:31:45;6.43;;;5.70;;
64887;SDS011;51386;53.082;8.816;2022-07-25T09:34:16;6.88;;;6.28;;
64887;SDS011;51386;53.082;8.816;2022-07-25T09:36:56;6.15;;;5.65;;
64887;SDS011;51386;53.082;8.816;2022-07-25T09:39:31;6.65;;;6.15;;
64887;SDS011;51386;53.082;8.816;2022-07-25T09:42:18;6.65;;;6.15;;
64887;SDS011;51386;53.082;8.816;2022-07-25T09:44:59;6.55;;;6.03;;
64887;SDS011;51386;53.082;8.816;2022-07-25T09:47:30;6.70;;;6.20;;
64887;SDS011;51386;53.082;8.816;2022-07-25T09:50:04;6.03;;;5.53;;
64887;SDS011;51386;53.082;8.816;2022-07-25T09:52:33;5.70;;;5.30;;
64887;SDS011;51386;53.082;8.816;2022-07-25T09:55:03;6.18;;;5.60;;
64887;SDS011;51386;53.082;8.816;2022-07-25T09:57:34;6.75;;;6.25;;
64887;SDS011;51386;53.082;8.816;2022-07-25T10:00:02;6.70;;;6.20;;
64887;SDS011;51386;53.082;8.816;2022-07-25T10:02:37;6.60;;;5.97;;
64887;SDS011;51386;53.082;8.816;2022-07-25T10:05:18;6.45;;;5.95;;
64887;SDS011;51386;53.082;8.816;2022-07-25T10:07:56;6.45;;;5.95;;
64887;SDS011;51386;53.082;8.816;2022-07-25T10:10:26;6.53;;;6.03;;
64887;SDS011;51386;53.082;8.816;2022-07-25T10:13:00;6.72;;;6.15;;
64887;SDS011;51386;53.082;8.816;2022-07-25T10:15:39;5.55;;;5.05;;
64887;SDS011;51386;53.082;8.816;2022-07-25T10:18:09;5.72;;;5.22;;
64887;SDS011;51386;53.082;8.816;2022-07-25T10:20:39;6.28;;;5.78;;
64887;SDS011;51386;53.082;8.816;2022-07-25T10:23:20;6.68;;;5.53;;
64887;SDS011;51386;53.082;8.816;2022-07-25T10:25:58;6.90;;;6.28;;
64887;SDS011;51386;53.082;8.816;2022-07-25T10:28:35;6.40;;;5.80;;
64887;SDS011;51386;53.082;8.816;2022-07-25T10:31:18;6.55;;;6.00;;
64887;SDS011;51386;53.082;8.816;2022-07-25T10:33:54;5.88;;;5.38;;
64887;SDS011;51386;53.082;8.816;2022-07-25T10:36:26;7.35;;;5.35;;
64887;SDS011;51386;53.082;8.816;2022-07-25T10:39:12;6.00;;;5.50;;
64887;SDS011;51386;53.082;8.816;2022-07-25T10:41:42;5.93;;;5.43;;
64887;SDS011;51386;53.082;8.816;2022-07-25T10:44:16;5.65;;;5.25;;
64887;SDS011;51386;53.082;8.816;2022-07-25T10:46:44;6.28;;;5.38;;
64887;SDS011;51386;53.082;8.816;2022-07-25T10:49:16;6.50;;;5.82;;
64887;SDS011;51386;53.082;8.816;2022-07-25T10:51:57;6.07;;;5.68;;
64887;SDS011;51386;53.082;8.816;2022-07-25T10:54:31;6.82;;;6.22;;
64887;SDS011;51386;53.082;8.816;2022-07-25T10:57:00;5.50;;;5.10;;
64887;SDS011;51386;53.082;8.816;2022-07-25T10:59:30;5.85;;;5.35;;
64887;SDS011;51386;53.082;8.816;2022-07-25T11:02:01;6.40;;;6.00;;
64887;SDS011;51386;53.082;8.816;2022-07-25T11:04:32;6.60;;;6.10;;
64887;SDS011;51386;53.082;8.816;2022-07-25T11:07:07;6.18;;;5.68;;
64887;SDS011;51386;53.082;8.816;2022-07-25T11:09:36;6.57;;;5.97;;
64887;SDS011;51386;53.082;8.816;2022-07-25T11:12:05;7.13;;;6.18;;
64887;SDS011;51386;53.082;8.816;2022-07-25T11:14:34;6.50;;;6.03;;
64887;SDS011;51386;53.082;8.816;2022-07-25T11:17:10;6.15;;;5.55;;
64887;SDS011;51386;53.082;8.816;2022-07-25T11:19:41;6.15;;;5.65;;
64887;SDS011;51386;53.082;8.816;2022-07-25T11:22:11;6.72;;;6.03;;
64887;SDS011;51386;53.082;8.816;2022-07-25T11:24:39;11.23;;;6.88;;
64887;SDS011;51386;53.082;8.816;2022-07-25T11:27:09;7.22;;;5.97;;
64887;SDS011;51386;53.082;8.816;2022-07-25T11:29:39;13.60;;;6.13;;
64887;SDS011;51386;53.082;8.816;2022-07-25T11:32:07;6.55;;;6.03;;
64887;SDS011;51386;53.082;8.816;2022-07-25T11:34:37;6.35;;;5.75;;
64887;SDS011;51386;53.082;8.816;2022-07-25T11:37:08;6.05;;;5.57;;
64887;SDS011;51386;53.082;8.816;2022-07-25T11:39:40;5.93;;;5.43;;
64887;SDS011;51386;53.082;8.816;2022-07-25T11:42:11;6.63;;;5.32;;
64887;SDS011;51386;53.082;8.816;2022-07-25T11:44:42;5.85;;;5.45;;
64887;SDS011;51386;53.082;8.816;2022-07-25T11:47:24;6.03;;;5.53;;
64887;SDS011;51386;53.082;8.816;2022-07-25T11:49:53;6.63;;;6.07;;
64887;SDS011;51386;53.082;8.816;2022-07-25T11:52:29;6.20;;;5.70;;
64887;SDS011;51386;53.082;8.816;2022-07-25T11:55:00;8.43;;;6.85;;
64887;SDS011;51386;53.082;8.816;2022-07-25T11:57:31;6.88;;;6.28;;
64887;SDS011;51386;53.082;8.816;2022-07-25T12:00:02;6.40;;;5.80;;
64887;SDS011;51386;53.082;8.816;2022-07-25T12:02:34;6.53;;;5.80;;
64887;SDS011;51386;53.082;8.816;2022-07-25T12:05:03;6.40;;;5.90;;
64887;SDS011;51386;53.082;8.816;2022-07-25T12:07:39;6.03;;;5.50;;
64887;SDS011;51386;53.082;8.816;2022-07-25T12:10:12;7.00;;;6.40;;
64887;SDS011;51386;53.082;8.816;2022-07-25T12:12:43;7.30;;;6.40;;
64887;SDS011;51386;53.082;8.816;2022-07-25T12:15:14;6.70;;;6.20;;
64887;SDS011;51386;53.082;8.816;2022-07-25T12:17:46;6.80;;;6.20;;
64887;SDS011;51386;53.082;8.816;2022-07-25T12:20:15;6.97;;;6.45;;
64887;SDS011;51386;53.082;8.816;2022-07-25T12:22:46;6.45;;;5.95;;
64887;SDS011;51386;53.082;8.816;2022-07-25T12:25:15;6.43;;;5.93;;
64887;SDS011;51386;53.082;8.816;2022-07-25T12:27:44;6.72;;;6.22;;
64887;SDS011;51386;53.082;8.816;2022-07-25T12:30:11;9.27;;;6.20;;
64887;SDS011;51386;53.082;8.816;2022-07-25T12:32:40;6.70;;;6.10;;
64887;SDS011;51386;53.082;8.816;2022-07-25T12:35:09;6.68;;;6.05;;
64887;SDS011;51386;53.082;8.816;2022-07-25T12:37:38;6.88;;;6.20;;
64887;SDS011;51386;53.082;8.816;2022-07-25T12:40:10;6.45;;;5.95;;
64887;SDS011;51386;53.082;8.816;2022-07-25T12:42:39;9.38;;;7.15;;
64887;SDS011;51386;53.082;8.816;2022-07-25T12:45:06;7.68;;;6.82;;
64887;SDS011;51386;53.082;8.816;2022-07-25T12:47:35;7.00;;;6.25;;
64887;SDS011;51386;53.082;8.816;2022-07-25T12:50:04;7.30;;;6.57;;
64887;SDS011;51386;53.082;8.816;2022-07-25T12:52:32;6.95;;;6.45;;
64887;SDS011;51386;53.082;8.816;2022-07-25T12:55:01;6.10;;;5.60;;
64887;SDS011;51386;53.082;8.816;2022-07-25T12:57:29;7.80;;;6.88;;
64887;SDS011;51386;53.082;8.816;2022-07-25T12:59:57;7.38;;;6.75;;
64887;SDS011;51386;53.082;8.816;2022-07-25T13:02:24;7.18;;;6.57;;
64887;SDS011;51386;53.082;8.816;2022-07-25T13:04:52;6.57;;;5.88;;
64887;SDS011;51386;53.082;8.816;2022-07-25T13:07:19;7.32;;;6.72;;
64887;SDS011;51386;53.082;8.816;2022-07-25T13:09:47;7.20;;;6.70;;
64887;SDS011;51386;53.082;8.816;2022-07-25T13:12:14;8.27;;;7.22;;
64887;SDS011;51386;53.082;8.816;2022-07-25T13:14:43;8.00;;;7.30;;
64887;SDS011;51386;53.082;8.816;2022-07-25T13:17:10;7.40;;;6.70;;
64887;SDS011;51386;53.082;8.816;2022-07-25T13:19:38;10.80;;;8.07;;
64887;SDS011;51386;53.082;8.816;2022-07-25T13:22:05;9.10;;;8.18;;
64887;SDS011;51386;53.082;8.816;2022-07-25T13:24:33;10.40;;;8.65;;
64887;SDS011;51386;53.082;8.816;2022-07-25T13:27:01;11.73;;;8.80;;
64887;SDS011;51386;53.082;8.816;2022-07-25T13:29:29;12.52;;;10.10;;
64887;SDS011;51386;53.082;8.816;2022-07-25T13:31:58;16.88;;;11.43;;
64887;SDS011;51386;53.082;8.816;2022-07-25T13:34:26;12.30;;;10.38;;
64887;SDS011;51386;53.082;8.816;2022-07-25T13:36:53;12.85;;;9.73;;
64887;SDS011;51386;53.082;8.816;2022-07-25T13:39:21;10.05;;;9.18;;
64887;SDS011;51386;53.082;8.816;2022-07-25T13:41:48;10.50;;;9.60;;
64887;SDS011;51386;53.082;8.816;2022-07-25T13:44:16;11.32;;;10.32;;
64887;SDS011;51386;53.082;8.816;2022-07-25T13:46:43;11.20;;;10.20;;
64887;SDS011;51386;53.082;8.816;2022-07-25T13:49:16;9.38;;;8.48;;
64887;SDS011;51386;53.082;8.816;2022-07-25T13:51:44;7.63;;;6.93;;
64887;SDS011;51386;53.082;8.816;2022-07-25T13:54:12;7.05;;;6.30;;
64887;SDS011;51386;53.082;8.816;2022-07-25T13:56:40;7.87;;;6.53;;
64887;SDS011;51386;53.082;8.816;2022-07-25T13:59:08;8.38;;;5.28;;
64887;SDS011;51386;53.082;8.816;2022-07-25T14:01:41;7.95;;;4.90;;
64887;SDS011;51386;53.082;8.816;2022-07-25T14:04:09;6.35;;;5.20;;
64887;SDS011;51386;53.082;8.816;2022-07-25T14:06:38;4.83;;;4.43;;
64887;SDS011;51386;53.082;8.816;2022-07-25T14:09:06;4.73;;;4.23;;
64887;SDS011;51386;53.082;8.816;2022-07-25T14:11:34;12.93;;;5.10;;
64887;SDS011;51386;53.082;8.816;2022-07-25T14:14:01;5.80;;;4.23;;
64887;SDS011;51386;53.082;8.816;2022-07-25T14:16:29;4.70;;;3.80;;
64887;SDS011;51386;53.082;8.816;2022-07-25T14:18:56;4.70;;;4.30;;
64887;SDS011;51386;53.082;8.816;2022-07-25T14:21:23;4.20;;;3.87;;
64887;SDS011;51386;53.082;8.816;2022-07-25T14:23:52;5.17;;;4.27;;
64887;SDS011;51386;53.082;8.816;2022-07-25T14:26:20;6.20;;;4.67;;
64887;SDS011;51386;53.082;8.816;2022-07-25T14:28:47;8.93;;;4.43;;
64887;SDS011;51386;53.082;8.816;2022-07-25T14:31:15;4.73;;;4.33;;
64887;SDS011;51386;53.082;8.816;2022-07-25T14:33:43;6.23;;;4.23;;
64887;SDS011;51386;53.082;8.816;2022-07-25T14:36:10;5.70;;;4.47;;
64887;SDS011;51386;53.082;8.816;2022-07-25T14:38:38;10.23;;;6.30;;
64887;SDS011;51386;53.082;8.816;2022-07-25T14:41:07;7.00;;;5.73;;
64887;SDS011;51386;53.082;8.816;2022-07-25T14:43:38;5.27;;;4.80;;
64887;SDS011;51386;53.082;8.816;2022-07-25T14:46:06;8.47;;;7.10;;
64887;SDS011;51386;53.082;8.816;2022-07-25T14:48:34;5.40;;;4.93;;
64887;SDS011;51386;53.082;8.816;2022-07-25T14:51:03;5.27;;;4.30;;
64887;SDS011;51386;53.082;8.816;2022-07-25T14:53:32;6.33;;;5.23;;
64887;SDS011;51386;53.082;8.816;2022-07-25T14:56:01;4.67;;;4.20;;
64887;SDS011;51386;53.082;8.816;2022-07-25T14:58:31;4.37;;;3.87;;